sensor_id;sensor_type;location;lat;lon;timestamp;P1;durP1;ratioP1;P2;durP2;ratioP2
12585;SDS011;6358;50.760;0.282;2023-04-15T00:01:36;1.30;;;0.93;;
12585;SDS011;6358;50.760;0.282;2023-04-15T00:04:02;1.43;;;0.90;;
12585;SDS011;6358;50.760;0.282;2023-04-15T00:06:29;0.70;;;0.70;;
12585;SDS011;6358;50.760;0.282;2023-04-15T00:08:55;1.23;;;0.80;;
12585;SDS011;6358;50.760;0.282;2023-04-15T00:11:21;0.67;;;0.67;;
12585;SDS011;6358;50.760;0.282;2023-04-15T00:13:48;0.77;;;0.70;;
12585;SDS011;6358;50.760;0.282;2023-04-15T00:16:14;1.03;;;1.00;;
12585;SDS011;6358;50.760;0.282;2023-04-15T00:18:40;1.10;;;0.70;;
12585;SDS011;6358;50.760;0.282;2023-04-15T00:21:06;1.53;;;0.90;;
12585;SDS011;6358;50.760;0.282;2023-04-15T00:23:33;0.97;;;0.87;;
12585;SDS011;6358;50.760;0.282;2023-04-15T00:26:00;1.17;;;0.80;;
12585;SDS011;6358;50.760;0.282;2023-04-15T00:28:27;0.70;;;0.70;;
12585;SDS011;6358;50.760;0.282;2023-04-15T00:30:53;1.27;;;0.83;;
12585;SDS011;6358;50.760;0.282;2023-04-15T00:33:19;1.17;;;0.80;;
12585;SDS011;6358;50.760;0.282;2023-04-15T00:35:45;1.23;;;0.80;;
12585;SDS011;6358;50.760;0.282;2023-04-15T00:38:11;0.80;;;0.67;;
12585;SDS011;6358;50.760;0.282;2023-04-15T00:40:37;0.80;;;0.53;;
12585;SDS011;6358;50.760;0.282;2023-04-15T00:43:03;0.70;;;0.70;;
12585;SDS011;6358;50.760;0.282;2023-04-15T00:45:30;1.17;;;0.90;;
12585;SDS011;6358;50.760;0.282;2023-04-15T00:47:56;0.60;;;0.60;;
12585;SDS011;6358;50.760;0.282;2023-04-15T00:50:22;1.07;;;0.67;;
12585;SDS011;6358;50.760;0.282;2023-04-15T00:52:48;1.17;;;0.83;;
12585;SDS011;6358;50.760;0.282;2023-04-15T00:55:14;0.80;;;0.77;;
12585;SDS011;6358;50.760;0.282;2023-04-15T00:57:41;0.50;;;0.50;;
12585;SDS011;6358;50.760;0.282;2023-04-15T01:00:07;1.20;;;0.70;;
12585;SDS011;6358;50.760;0.282;2023-04-15T01:02:35;0.80;;;0.50;;
12585;SDS011;6358;50.760;0.282;2023-04-15T01:05:01;1.40;;;0.60;;
12585;SDS011;6358;50.760;0.282;2023-04-15T01:07:28;0.73;;;0.73;;
12585;SDS011;6358;50.760;0.282;2023-04-15T01:09:54;0.63;;;0.63;;
12585;SDS011;6358;50.760;0.282;2023-04-15T01:12:20;0.70;;;0.70;;
12585;SDS011;6358;50.760;0.282;2023-04-15T01:14:47;1.13;;;0.90;;
12585;SDS011;6358;50.760;0.282;2023-04-15T01:17:13;0.93;;;0.77;;
12585;SDS011;6358;50.760;0.282;2023-04-15T01:19:39;0.83;;;0.60;;
12585;SDS011;6358;50.760;0.282;2023-04-15T01:22:05;0.97;;;0.60;;
12585;SDS011;6358;50.760;0.282;2023-04-15T01:24:32;0.77;;;0.70;;
12585;SDS011;6358;50.760;0.282;2023-04-15T01:26:58;0.97;;;0.80;;
12585;SDS011;6358;50.760;0.282;2023-04-15T01:29:24;0.77;;;0.77;;
12585;SDS011;6358;50.760;0.282;2023-04-15T01:31:51;0.60;;;0.60;;
12585;SDS011;6358;50.760;0.282;2023-04-15T01:34:17;1.03;;;0.80;;
12585;SDS011;6358;50.760;0.282;2023-04-15T01:36:44;1.27;;;0.77;;
12585;SDS011;6358;50.760;0.282;2023-04-15T01:39:10;0.63;;;0.60;;
12585;SDS011;6358;50.760;0.282;2023-04-15T01:41:37;1.23;;;0.50;;
12585;SDS011;6358;50.760;0.282;2023-04-15T01:44:04;0.57;;;0.57;;
12585;SDS011;6358;50.760;0.282;2023-04-15T01:46:31;0.73;;;0.60;;
12585;SDS011;6358;50.760;0.282;2023-04-15T01:48:57;0.93;;;0.90;;
12585;SDS011;6358;50.760;0.282;2023-04-15T01:51:23;0.97;;;0.90;;
12585;SDS011;6358;50.760;0.282;2023-04-15T01:53:49;0.90;;;0.70;;
12585;SDS011;6358;50.760;0.282;2023-04-15T01:56:16;0.73;;;0.60;;
12585;SDS011;6358;50.760;0.282;2023-04-15T01:58:42;0.97;;;0.80;;
12585;SDS011;6358;50.760;0.282;2023-04-15T02:01:08;0.53;;;0.53;;
12585;SDS011;6358;50.760;0.282;2023-04-15T02:03:37;1.67;;;0.97;;
12585;SDS011;6358;50.760;0.282;2023-04-15T02:06:03;0.80;;;0.80;;
12585;SDS011;6358;50.760;0.282;2023-04-15T02:08:30;0.60;;;0.60;;
12585;SDS011;6358;50.760;0.282;2023-04-15T02:10:56;0.70;;;0.67;;
12585;SDS011;6358;50.760;0.282;2023-04-15T02:13:22;0.80;;;0.80;;
12585;SDS011;6358;50.760;0.282;2023-04-15T02:15:48;0.53;;;0.50;;
12585;SDS011;6358;50.760;0.282;2023-04-15T02:18:16;0.47;;;0.40;;
12585;SDS011;6358;50.760;0.282;2023-04-15T02:20:42;0.67;;;0.67;;
12585;SDS011;6358;50.760;0.282;2023-04-15T02:23:09;0.60;;;0.60;;
12585;SDS011;6358;50.760;0.282;2023-04-15T02:25:36;0.60;;;0.60;;
12585;SDS011;6358;50.760;0.282;2023-04-15T02:28:03;0.50;;;0.50;;
12585;SDS011;6358;50.760;0.282;2023-04-15T02:30:30;0.60;;;0.60;;
12585;SDS011;6358;50.760;0.282;2023-04-15T02:32:57;1.07;;;1.00;;
12585;SDS011;6358;50.760;0.282;2023-04-15T02:35:23;0.67;;;0.67;;
12585;SDS011;6358;50.760;0.282;2023-04-15T02:37:50;1.10;;;0.70;;
12585;SDS011;6358;50.760;0.282;2023-04-15T02:40:16;0.80;;;0.80;;
12585;SDS011;6358;50.760;0.282;2023-04-15T02:42:42;0.93;;;0.73;;
12585;SDS011;6358;50.760;0.282;2023-04-15T02:45:09;0.40;;;0.40;;
12585;SDS011;6358;50.760;0.282;2023-04-15T02:47:36;0.80;;;0.80;;
12585;SDS011;6358;50.760;0.282;2023-04-15T02:50:08;1.63;;;0.80;;
12585;SDS011;6358;50.760;0.282;2023-04-15T02:52:36;0.73;;;0.73;;
12585;SDS011;6358;50.760;0.282;2023-04-15T02:55:02;0.73;;;0.73;;
12585;SDS011;6358;50.760;0.282;2023-04-15T02:57:29;0.80;;;0.80;;
12585;SDS011;6358;50.760;0.282;2023-04-15T02:59:55;0.80;;;0.70;;
12585;SDS011;6358;50.760;0.282;2023-04-15T03:02:21;0.90;;;0.70;;
12585;SDS011;6358;50.760;0.282;2023-04-15T03:04:48;0.70;;;0.70;;
12585;SDS011;6358;50.760;0.282;2023-04-15T03:07:14;0.93;;;0.70;;
12585;SDS011;6358;50.760;0.282;2023-04-15T03:09:40;0.70;;;0.70;;
12585;SDS011;6358;50.760;0.282;2023-04-15T03:12:06;0.77;;;0.77;;
12585;SDS011;6358;50.760;0.282;2023-04-15T03:14:32;2.43;;;0.70;;
12585;SDS011;6358;50.760;0.282;2023-04-15T03:16:59;0.70;;;0.70;;
12585;SDS011;6358;50.760;0.282;2023-04-15T03:19:25;0.93;;;0.80;;
12585;SDS011;6358;50.760;0.282;2023-04-15T03:21:51;0.63;;;0.60;;
12585;SDS011;6358;50.760;0.282;2023-04-15T03:24:17;0.60;;;0.60;;
12585;SDS011;6358;50.760;0.282;2023-04-15T03:26:43;0.67;;;0.67;;
12585;SDS011;6358;50.760;0.282;2023-04-15T03:29:09;0.80;;;0.70;;
12585;SDS011;6358;50.760;0.282;2023-04-15T03:31:35;0.53;;;0.53;;
12585;SDS011;6358;50.760;0.282;2023-04-15T03:34:01;0.60;;;0.60;;
12585;SDS011;6358;50.760;0.282;2023-04-15T03:36:28;0.60;;;0.60;;
12585;SDS011;6358;50.760;0.282;2023-04-15T03:38:56;0.60;;;0.60;;
12585;SDS011;6358;50.760;0.282;2023-04-15T03:41:22;0.60;;;0.60;;
12585;SDS011;6358;50.760;0.282;2023-04-15T03:43:48;0.70;;;0.70;;
12585;SDS011;6358;50.760;0.282;2023-04-15T03:46:16;0.77;;;0.70;;
12585;SDS011;6358;50.760;0.282;2023-04-15T03:48:42;0.70;;;0.60;;
12585;SDS011;6358;50.760;0.282;2023-04-15T03:51:08;0.70;;;0.70;;
12585;SDS011;6358;50.760;0.282;2023-04-15T03:53:35;1.00;;;0.80;;
12585;SDS011;6358;50.760;0.282;2023-04-15T03:56:01;0.70;;;0.70;;
12585;SDS011;6358;50.760;0.282;2023-04-15T03:58:27;0.43;;;0.43;;
12585;SDS011;6358;50.760;0.282;2023-04-15T04:00:53;0.70;;;0.70;;
12585;SDS011;6358;50.760;0.282;2023-04-15T04:03:19;0.60;;;0.60;;
12585;SDS011;6358;50.760;0.282;2023-04-15T04:05:45;0.60;;;0.60;;
12585;SDS011;6358;50.760;0.282;2023-04-15T04:08:12;0.60;;;0.60;;
12585;SDS011;6358;50.760;0.282;2023-04-15T04:10:38;0.80;;;0.80;;
12585;SDS011;6358;50.760;0.282;2023-04-15T04:13:04;0.70;;;0.70;;
12585;SDS011;6358;50.760;0.282;2023-04-15T04:15:31;0.70;;;0.70;;
12585;SDS011;6358;50.760;0.282;2023-04-15T04:17:57;1.07;;;0.70;;
12585;SDS011;6358;50.760;0.282;2023-04-15T04:20:23;0.50;;;0.50;;
12585;SDS011;6358;50.760;0.282;2023-04-15T04:22:49;0.70;;;0.70;;
12585;SDS011;6358;50.760;0.282;2023-04-15T04:25:15;0.67;;;0.67;;
12585;SDS011;6358;50.760;0.282;2023-04-15T04:27:41;0.40;;;0.40;;
12585;SDS011;6358;50.760;0.282;2023-04-15T04:30:09;0.70;;;0.70;;
12585;SDS011;6358;50.760;0.282;2023-04-15T04:32:35;0.70;;;0.70;;
12585;SDS011;6358;50.760;0.282;2023-04-15T04:35:01;0.53;;;0.50;;
12585;SDS011;6358;50.760;0.282;2023-04-15T04:37:28;0.70;;;0.70;;
12585;SDS011;6358;50.760;0.282;2023-04-15T04:39:54;0.70;;;0.70;;
12585;SDS011;6358;50.760;0.282;2023-04-15T04:42:20;0.70;;;0.67;;
12585;SDS011;6358;50.760;0.282;2023-04-15T04:44:46;0.70;;;0.70;;
12585;SDS011;6358;50.760;0.282;2023-04-15T04:47:12;0.67;;;0.67;;
12585;SDS011;6358;50.760;0.282;2023-04-15T04:49:39;0.93;;;0.83;;
12585;SDS011;6358;50.760;0.282;2023-04-15T04:52:05;0.63;;;0.63;;
12585;SDS011;6358;50.760;0.282;2023-04-15T04:54:31;0.60;;;0.60;;
12585;SDS011;6358;50.760;0.282;2023-04-15T04:56:58;0.67;;;0.67;;
12585;SDS011;6358;50.760;0.282;2023-04-15T04:59:24;0.80;;;0.60;;
12585;SDS011;6358;50.760;0.282;2023-04-15T05:01:51;0.90;;;0.70;;
12585;SDS011;6358;50.760;0.282;2023-04-15T05:04:17;0.47;;;0.47;;
12585;SDS011;6358;50.760;0.282;2023-04-15T05:06:43;0.50;;;0.50;;
12585;SDS011;6358;50.760;0.282;2023-04-15T05:09:09;0.50;;;0.50;;
12585;SDS011;6358;50.760;0.282;2023-04-15T05:11:35;1.07;;;0.47;;
12585;SDS011;6358;50.760;0.282;2023-04-15T05:14:01;0.70;;;0.70;;
12585;SDS011;6358;50.760;0.282;2023-04-15T05:16:28;0.70;;;0.70;;
12585;SDS011;6358;50.760;0.282;2023-04-15T05:18:54;0.57;;;0.57;;
12585;SDS011;6358;50.760;0.282;2023-04-15T05:21:20;0.57;;;0.57;;
12585;SDS011;6358;50.760;0.282;2023-04-15T05:23:46;0.50;;;0.50;;
12585;SDS011;6358;50.760;0.282;2023-04-15T05:26:12;0.60;;;0.60;;
12585;SDS011;6358;50.760;0.282;2023-04-15T05:28:38;0.93;;;0.77;;
12585;SDS011;6358;50.760;0.282;2023-04-15T05:31:04;0.60;;;0.60;;
12585;SDS011;6358;50.760;0.282;2023-04-15T05:33:31;0.50;;;0.50;;
12585;SDS011;6358;50.760;0.282;2023-04-15T05:35:57;0.53;;;0.53;;
12585;SDS011;6358;50.760;0.282;2023-04-15T05:38:23;0.43;;;0.43;;
12585;SDS011;6358;50.760;0.282;2023-04-15T05:40:49;0.60;;;0.60;;
12585;SDS011;6358;50.760;0.282;2023-04-15T05:43:15;0.60;;;0.60;;
12585;SDS011;6358;50.760;0.282;2023-04-15T05:45:41;0.57;;;0.57;;
12585;SDS011;6358;50.760;0.282;2023-04-15T05:48:07;0.60;;;0.60;;
12585;SDS011;6358;50.760;0.282;2023-04-15T05:50:34;0.50;;;0.50;;
12585;SDS011;6358;50.760;0.282;2023-04-15T05:53:00;0.50;;;0.40;;
12585;SDS011;6358;50.760;0.282;2023-04-15T05:55:26;0.50;;;0.50;;
12585;SDS011;6358;50.760;0.282;2023-04-15T05:57:52;0.60;;;0.60;;
12585;SDS011;6358;50.760;0.282;2023-04-15T06:00:18;0.50;;;0.50;;
12585;SDS011;6358;50.760;0.282;2023-04-15T06:02:45;0.53;;;0.50;;
12585;SDS011;6358;50.760;0.282;2023-04-15T06:05:11;0.40;;;0.40;;
12585;SDS011;6358;50.760;0.282;2023-04-15T06:07:37;0.43;;;0.43;;
12585;SDS011;6358;50.760;0.282;2023-04-15T06:10:04;0.50;;;0.50;;
12585;SDS011;6358;50.760;0.282;2023-04-15T06:12:31;0.73;;;0.40;;
12585;SDS011;6358;50.760;0.282;2023-04-15T06:14:57;0.50;;;0.50;;
12585;SDS011;6358;50.760;0.282;2023-04-15T06:17:23;0.40;;;0.40;;
12585;SDS011;6358;50.760;0.282;2023-04-15T06:19:49;0.40;;;0.40;;
12585;SDS011;6358;50.760;0.282;2023-04-15T06:22:20;1.53;;;0.50;;
12585;SDS011;6358;50.760;0.282;2023-04-15T06:24:47;0.43;;;0.43;;
12585;SDS011;6358;50.760;0.282;2023-04-15T06:27:14;0.67;;;0.67;;
12585;SDS011;6358;50.760;0.282;2023-04-15T06:29:40;0.73;;;0.43;;
12585;SDS011;6358;50.760;0.282;2023-04-15T06:32:07;0.40;;;0.40;;
12585;SDS011;6358;50.760;0.282;2023-04-15T06:34:33;0.47;;;0.47;;
12585;SDS011;6358;50.760;0.282;2023-04-15T06:36:59;0.30;;;0.30;;
12585;SDS011;6358;50.760;0.282;2023-04-15T06:39:25;0.43;;;0.30;;
12585;SDS011;6358;50.760;0.282;2023-04-15T06:41:51;0.50;;;0.50;;
12585;SDS011;6358;50.760;0.282;2023-04-15T06:44:18;0.30;;;0.30;;
12585;SDS011;6358;50.760;0.282;2023-04-15T06:46:44;0.57;;;0.40;;
12585;SDS011;6358;50.760;0.282;2023-04-15T06:49:10;0.30;;;0.30;;
12585;SDS011;6358;50.760;0.282;2023-04-15T06:51:36;0.57;;;0.50;;
12585;SDS011;6358;50.760;0.282;2023-04-15T06:54:03;0.30;;;0.30;;
12585;SDS011;6358;50.760;0.282;2023-04-15T06:56:33;0.27;;;0.27;;
12585;SDS011;6358;50.760;0.282;2023-04-15T06:58:59;0.40;;;0.40;;
12585;SDS011;6358;50.760;0.282;2023-04-15T07:01:25;0.40;;;0.40;;
12585;SDS011;6358;50.760;0.282;2023-04-15T07:03:51;0.77;;;0.30;;
12585;SDS011;6358;50.760;0.282;2023-04-15T07:06:17;0.30;;;0.30;;
12585;SDS011;6358;50.760;0.282;2023-04-15T07:08:43;0.30;;;0.30;;
12585;SDS011;6358;50.760;0.282;2023-04-15T07:11:09;0.50;;;0.40;;
12585;SDS011;6358;50.760;0.282;2023-04-15T07:13:36;0.40;;;0.40;;
12585;SDS011;6358;50.760;0.282;2023-04-15T07:16:02;0.37;;;0.37;;
12585;SDS011;6358;50.760;0.282;2023-04-15T07:18:28;0.27;;;0.27;;
12585;SDS011;6358;50.760;0.282;2023-04-15T07:20:54;0.30;;;0.30;;
12585;SDS011;6358;50.760;0.282;2023-04-15T07:23:20;0.20;;;0.20;;
12585;SDS011;6358;50.760;0.282;2023-04-15T07:25:47;0.40;;;0.40;;
12585;SDS011;6358;50.760;0.282;2023-04-15T07:28:13;0.30;;;0.30;;
12585;SDS011;6358;50.760;0.282;2023-04-15T07:30:40;0.23;;;0.23;;
12585;SDS011;6358;50.760;0.282;2023-04-15T07:33:06;0.30;;;0.30;;
12585;SDS011;6358;50.760;0.282;2023-04-15T07:35:32;0.60;;;0.43;;
12585;SDS011;6358;50.760;0.282;2023-04-15T07:37:58;0.20;;;0.20;;
12585;SDS011;6358;50.760;0.282;2023-04-15T07:40:24;0.40;;;0.40;;
12585;SDS011;6358;50.760;0.282;2023-04-15T07:42:51;0.30;;;0.30;;
12585;SDS011;6358;50.760;0.282;2023-04-15T07:45:17;0.30;;;0.30;;
12585;SDS011;6358;50.760;0.282;2023-04-15T07:47:43;0.30;;;0.30;;
12585;SDS011;6358;50.760;0.282;2023-04-15T07:50:10;0.47;;;0.40;;
12585;SDS011;6358;50.760;0.282;2023-04-15T07:52:36;0.20;;;0.20;;
12585;SDS011;6358;50.760;0.282;2023-04-15T07:55:06;0.30;;;0.30;;
12585;SDS011;6358;50.760;0.282;2023-04-15T07:57:33;0.30;;;0.30;;
12585;SDS011;6358;50.760;0.282;2023-04-15T07:59:59;0.30;;;0.30;;
12585;SDS011;6358;50.760;0.282;2023-04-15T08:02:25;0.50;;;0.30;;
12585;SDS011;6358;50.760;0.282;2023-04-15T08:04:52;0.63;;;0.47;;
12585;SDS011;6358;50.760;0.282;2023-04-15T08:07:18;0.30;;;0.30;;
12585;SDS011;6358;50.760;0.282;2023-04-15T08:09:45;1.40;;;0.50;;
12585;SDS011;6358;50.760;0.282;2023-04-15T08:12:11;1.07;;;0.50;;
12585;SDS011;6358;50.760;0.282;2023-04-15T08:14:38;0.43;;;0.40;;
12585;SDS011;6358;50.760;0.282;2023-04-15T08:17:04;0.30;;;0.30;;
12585;SDS011;6358;50.760;0.282;2023-04-15T08:19:31;0.30;;;0.30;;
12585;SDS011;6358;50.760;0.282;2023-04-15T08:21:57;0.63;;;0.30;;
12585;SDS011;6358;50.760;0.282;2023-04-15T08:24:23;0.30;;;0.30;;
12585;SDS011;6358;50.760;0.282;2023-04-15T08:26:50;0.40;;;0.40;;
12585;SDS011;6358;50.760;0.282;2023-04-15T08:29:16;0.30;;;0.30;;
12585;SDS011;6358;50.760;0.282;2023-04-15T08:31:43;0.40;;;0.37;;
12585;SDS011;6358;50.760;0.282;2023-04-15T08:34:12;0.30;;;0.30;;
12585;SDS011;6358;50.760;0.282;2023-04-15T08:36:39;0.53;;;0.40;;
12585;SDS011;6358;50.760;0.282;2023-04-15T08:39:05;0.73;;;0.30;;
12585;SDS011;6358;50.760;0.282;2023-04-15T08:41:50;0.67;;;0.50;;
12585;SDS011;6358;50.760;0.282;2023-04-15T08:44:17;0.23;;;0.23;;
12585;SDS011;6358;50.760;0.282;2023-04-15T08:46:44;0.23;;;0.23;;
12585;SDS011;6358;50.760;0.282;2023-04-15T08:49:11;0.40;;;0.40;;
12585;SDS011;6358;50.760;0.282;2023-04-15T08:51:37;0.40;;;0.40;;
12585;SDS011;6358;50.760;0.282;2023-04-15T08:54:04;0.60;;;0.60;;
12585;SDS011;6358;50.760;0.282;2023-04-15T08:56:31;0.60;;;0.40;;
12585;SDS011;6358;50.760;0.282;2023-04-15T08:58:57;0.40;;;0.40;;
12585;SDS011;6358;50.760;0.282;2023-04-15T09:01:24;0.77;;;0.30;;
12585;SDS011;6358;50.760;0.282;2023-04-15T09:03:51;0.30;;;0.30;;
12585;SDS011;6358;50.760;0.282;2023-04-15T09:06:19;0.40;;;0.40;;
12585;SDS011;6358;50.760;0.282;2023-04-15T09:08:45;0.33;;;0.33;;
12585;SDS011;6358;50.760;0.282;2023-04-15T09:11:11;0.57;;;0.50;;
12585;SDS011;6358;50.760;0.282;2023-04-15T09:13:38;0.30;;;0.30;;
12585;SDS011;6358;50.760;0.282;2023-04-15T09:16:04;1.17;;;0.40;;
12585;SDS011;6358;50.760;0.282;2023-04-15T09:18:32;0.40;;;0.40;;
12585;SDS011;6358;50.760;0.282;2023-04-15T09:21:05;0.37;;;0.37;;
12585;SDS011;6358;50.760;0.282;2023-04-15T09:23:33;0.37;;;0.37;;
12585;SDS011;6358;50.760;0.282;2023-04-15T09:26:03;0.30;;;0.30;;
12585;SDS011;6358;50.760;0.282;2023-04-15T09:28:30;0.40;;;0.40;;
12585;SDS011;6358;50.760;0.282;2023-04-15T09:30:59;0.40;;;0.40;;
12585;SDS011;6358;50.760;0.282;2023-04-15T09:33:26;0.77;;;0.40;;
12585;SDS011;6358;50.760;0.282;2023-04-15T09:35:56;0.50;;;0.50;;
12585;SDS011;6358;50.760;0.282;2023-04-15T09:38:23;0.70;;;0.40;;
12585;SDS011;6358;50.760;0.282;2023-04-15T09:40:49;0.40;;;0.40;;
12585;SDS011;6358;50.760;0.282;2023-04-15T09:43:16;0.30;;;0.30;;
12585;SDS011;6358;50.760;0.282;2023-04-15T09:45:49;0.47;;;0.47;;
12585;SDS011;6358;50.760;0.282;2023-04-15T09:48:19;0.77;;;0.60;;
12585;SDS011;6358;50.760;0.282;2023-04-15T09:50:46;0.67;;;0.50;;
12585;SDS011;6358;50.760;0.282;2023-04-15T09:53:19;0.53;;;0.53;;
12585;SDS011;6358;50.760;0.282;2023-04-15T09:55:55;0.70;;;0.43;;
12585;SDS011;6358;50.760;0.282;2023-04-15T10:00:48;0.50;;;0.50;;
12585;SDS011;6358;50.760;0.282;2023-04-15T10:03:18;1.50;;;0.50;;
12585;SDS011;6358;50.760;0.282;2023-04-15T10:05:46;0.33;;;0.33;;
12585;SDS011;6358;50.760;0.282;2023-04-15T10:08:13;0.50;;;0.50;;
12585;SDS011;6358;50.760;0.282;2023-04-15T10:10:40;0.40;;;0.40;;
12585;SDS011;6358;50.760;0.282;2023-04-15T10:13:06;0.50;;;0.50;;
12585;SDS011;6358;50.760;0.282;2023-04-15T10:15:33;0.50;;;0.50;;
12585;SDS011;6358;50.760;0.282;2023-04-15T10:17:59;0.50;;;0.50;;
12585;SDS011;6358;50.760;0.282;2023-04-15T10:20:26;0.60;;;0.60;;
12585;SDS011;6358;50.760;0.282;2023-04-15T10:22:54;0.60;;;0.60;;
12585;SDS011;6358;50.760;0.282;2023-04-15T10:25:21;0.80;;;0.57;;
12585;SDS011;6358;50.760;0.282;2023-04-15T10:27:48;0.80;;;0.40;;
12585;SDS011;6358;50.760;0.282;2023-04-15T10:30:16;0.30;;;0.30;;
12585;SDS011;6358;50.760;0.282;2023-04-15T10:32:43;1.07;;;0.50;;
12585;SDS011;6358;50.760;0.282;2023-04-15T10:35:09;1.33;;;0.70;;
12585;SDS011;6358;50.760;0.282;2023-04-15T10:37:36;0.37;;;0.37;;
12585;SDS011;6358;50.760;0.282;2023-04-15T10:42:47;1.20;;;0.67;;
12585;SDS011;6358;50.760;0.282;2023-04-15T10:45:17;1.27;;;0.60;;
12585;SDS011;6358;50.760;0.282;2023-04-15T10:47:43;0.40;;;0.40;;
12585;SDS011;6358;50.760;0.282;2023-04-15T10:50:09;0.50;;;0.50;;
12585;SDS011;6358;50.760;0.282;2023-04-15T10:52:36;0.50;;;0.50;;
12585;SDS011;6358;50.760;0.282;2023-04-15T10:57:39;0.67;;;0.67;;
12585;SDS011;6358;50.760;0.282;2023-04-15T11:00:10;1.07;;;0.60;;
12585;SDS011;6358;50.760;0.282;2023-04-15T11:05:22;0.60;;;0.60;;
12585;SDS011;6358;50.760;0.282;2023-04-15T11:07:50;0.83;;;0.67;;
12585;SDS011;6358;50.760;0.282;2023-04-15T11:12:45;0.60;;;0.60;;
12585;SDS011;6358;50.760;0.282;2023-04-15T11:15:24;0.57;;;0.57;;
12585;SDS011;6358;50.760;0.282;2023-04-15T11:17:52;1.70;;;0.57;;
12585;SDS011;6358;50.760;0.282;2023-04-15T11:20:18;0.70;;;0.70;;
12585;SDS011;6358;50.760;0.282;2023-04-15T11:22:49;0.63;;;0.63;;
12585;SDS011;6358;50.760;0.282;2023-04-15T11:25:24;2.47;;;0.80;;
12585;SDS011;6358;50.760;0.282;2023-04-15T11:27:51;0.57;;;0.57;;
12585;SDS011;6358;50.760;0.282;2023-04-15T11:30:19;0.70;;;0.70;;
12585;SDS011;6358;50.760;0.282;2023-04-15T11:32:46;1.00;;;0.87;;
12585;SDS011;6358;50.760;0.282;2023-04-15T11:35:12;0.80;;;0.70;;
12585;SDS011;6358;50.760;0.282;2023-04-15T11:37:38;0.60;;;0.50;;
12585;SDS011;6358;50.760;0.282;2023-04-15T11:40:05;0.90;;;0.60;;
12585;SDS011;6358;50.760;0.282;2023-04-15T11:42:31;0.97;;;0.60;;
12585;SDS011;6358;50.760;0.282;2023-04-15T11:45:10;0.83;;;0.83;;
12585;SDS011;6358;50.760;0.282;2023-04-15T11:47:36;0.63;;;0.60;;
12585;SDS011;6358;50.760;0.282;2023-04-15T11:50:13;0.83;;;0.60;;
12585;SDS011;6358;50.760;0.282;2023-04-15T11:52:40;0.60;;;0.60;;
12585;SDS011;6358;50.760;0.282;2023-04-15T11:55:06;1.53;;;0.90;;
12585;SDS011;6358;50.760;0.282;2023-04-15T11:57:33;0.60;;;0.60;;
12585;SDS011;6358;50.760;0.282;2023-04-15T12:00:00;0.60;;;0.60;;
12585;SDS011;6358;50.760;0.282;2023-04-15T12:02:29;0.67;;;0.63;;
12585;SDS011;6358;50.760;0.282;2023-04-15T12:05:06;0.70;;;0.70;;
12585;SDS011;6358;50.760;0.282;2023-04-15T12:07:45;1.90;;;0.77;;
12585;SDS011;6358;50.760;0.282;2023-04-15T12:10:19;0.77;;;0.77;;
12585;SDS011;6358;50.760;0.282;2023-04-15T12:12:48;0.87;;;0.80;;
12585;SDS011;6358;50.760;0.282;2023-04-15T12:15:14;2.03;;;0.73;;
12585;SDS011;6358;50.760;0.282;2023-04-15T12:17:40;2.37;;;0.80;;
12585;SDS011;6358;50.760;0.282;2023-04-15T12:20:07;0.80;;;0.77;;
12585;SDS011;6358;50.760;0.282;2023-04-15T12:22:36;0.90;;;0.80;;
12585;SDS011;6358;50.760;0.282;2023-04-15T12:25:02;0.73;;;0.73;;
12585;SDS011;6358;50.760;0.282;2023-04-15T12:27:30;1.10;;;0.80;;
12585;SDS011;6358;50.760;0.282;2023-04-15T12:30:03;0.90;;;0.73;;
12585;SDS011;6358;50.760;0.282;2023-04-15T12:32:29;2.87;;;0.80;;
12585;SDS011;6358;50.760;0.282;2023-04-15T12:34:59;0.80;;;0.80;;
12585;SDS011;6358;50.760;0.282;2023-04-15T12:37:26;0.73;;;0.73;;
12585;SDS011;6358;50.760;0.282;2023-04-15T12:39:52;2.17;;;0.80;;
12585;SDS011;6358;50.760;0.282;2023-04-15T12:42:18;1.50;;;0.90;;
12585;SDS011;6358;50.760;0.282;2023-04-15T12:44:45;1.40;;;0.90;;
12585;SDS011;6358;50.760;0.282;2023-04-15T12:47:11;3.87;;;1.10;;
12585;SDS011;6358;50.760;0.282;2023-04-15T12:49:38;2.07;;;1.10;;
12585;SDS011;6358;50.760;0.282;2023-04-15T12:52:04;1.00;;;0.90;;
12585;SDS011;6358;50.760;0.282;2023-04-15T12:54:31;1.50;;;1.00;;
12585;SDS011;6358;50.760;0.282;2023-04-15T12:56:58;2.30;;;1.10;;
12585;SDS011;6358;50.760;0.282;2023-04-15T12:59:24;1.57;;;0.90;;
12585;SDS011;6358;50.760;0.282;2023-04-15T13:01:51;0.97;;;0.90;;
12585;SDS011;6358;50.760;0.282;2023-04-15T13:04:17;1.63;;;0.70;;
12585;SDS011;6358;50.760;0.282;2023-04-15T13:06:44;0.80;;;0.80;;
12585;SDS011;6358;50.760;0.282;2023-04-15T13:09:10;1.37;;;0.90;;
12585;SDS011;6358;50.760;0.282;2023-04-15T13:11:36;2.47;;;0.90;;
12585;SDS011;6358;50.760;0.282;2023-04-15T13:14:03;1.00;;;0.80;;
12585;SDS011;6358;50.760;0.282;2023-04-15T13:16:30;0.70;;;0.70;;
12585;SDS011;6358;50.760;0.282;2023-04-15T13:18:58;1.03;;;0.90;;
12585;SDS011;6358;50.760;0.282;2023-04-15T13:21:24;2.67;;;0.87;;
12585;SDS011;6358;50.760;0.282;2023-04-15T13:23:51;0.73;;;0.73;;
12585;SDS011;6358;50.760;0.282;2023-04-15T13:26:17;1.43;;;0.90;;
12585;SDS011;6358;50.760;0.282;2023-04-15T13:28:43;0.70;;;0.70;;
12585;SDS011;6358;50.760;0.282;2023-04-15T13:31:10;1.07;;;0.93;;
12585;SDS011;6358;50.760;0.282;2023-04-15T13:33:36;1.37;;;1.00;;
12585;SDS011;6358;50.760;0.282;2023-04-15T13:36:02;1.53;;;0.90;;
12585;SDS011;6358;50.760;0.282;2023-04-15T13:38:28;0.80;;;0.80;;
12585;SDS011;6358;50.760;0.282;2023-04-15T13:40:54;0.70;;;0.70;;
12585;SDS011;6358;50.760;0.282;2023-04-15T13:43:20;1.57;;;0.83;;
12585;SDS011;6358;50.760;0.282;2023-04-15T13:45:46;1.37;;;1.10;;
12585;SDS011;6358;50.760;0.282;2023-04-15T13:48:12;0.80;;;0.80;;
12585;SDS011;6358;50.760;0.282;2023-04-15T13:50:39;0.87;;;0.77;;
12585;SDS011;6358;50.760;0.282;2023-04-15T13:53:09;0.77;;;0.77;;
12585;SDS011;6358;50.760;0.282;2023-04-15T13:55:35;1.37;;;0.80;;
12585;SDS011;6358;50.760;0.282;2023-04-15T13:58:05;1.03;;;0.87;;
12585;SDS011;6358;50.760;0.282;2023-04-15T14:00:31;0.97;;;0.90;;
12585;SDS011;6358;50.760;0.282;2023-04-15T14:02:57;1.13;;;1.03;;
12585;SDS011;6358;50.760;0.282;2023-04-15T14:05:23;1.90;;;1.00;;
12585;SDS011;6358;50.760;0.282;2023-04-15T14:07:49;1.10;;;1.00;;
12585;SDS011;6358;50.760;0.282;2023-04-15T14:10:15;1.07;;;0.97;;
12585;SDS011;6358;50.760;0.282;2023-04-15T14:12:41;1.20;;;1.00;;
12585;SDS011;6358;50.760;0.282;2023-04-15T14:15:08;2.90;;;1.00;;
12585;SDS011;6358;50.760;0.282;2023-04-15T14:17:34;0.90;;;0.90;;
12585;SDS011;6358;50.760;0.282;2023-04-15T14:20:00;0.80;;;0.80;;
12585;SDS011;6358;50.760;0.282;2023-04-15T14:22:26;1.80;;;0.90;;
12585;SDS011;6358;50.760;0.282;2023-04-15T14:24:52;0.93;;;0.80;;
12585;SDS011;6358;50.760;0.282;2023-04-15T14:27:19;1.33;;;0.90;;
12585;SDS011;6358;50.760;0.282;2023-04-15T14:29:46;0.87;;;0.87;;
12585;SDS011;6358;50.760;0.282;2023-04-15T14:32:12;1.20;;;1.10;;
12585;SDS011;6358;50.760;0.282;2023-04-15T14:34:38;1.07;;;0.90;;
12585;SDS011;6358;50.760;0.282;2023-04-15T14:37:04;1.00;;;0.90;;
12585;SDS011;6358;50.760;0.282;2023-04-15T14:39:30;1.80;;;0.80;;
12585;SDS011;6358;50.760;0.282;2023-04-15T14:41:57;1.00;;;0.90;;
12585;SDS011;6358;50.760;0.282;2023-04-15T14:44:23;0.80;;;0.80;;
12585;SDS011;6358;50.760;0.282;2023-04-15T14:46:50;1.07;;;0.77;;
12585;SDS011;6358;50.760;0.282;2023-04-15T14:49:16;1.43;;;1.10;;
12585;SDS011;6358;50.760;0.282;2023-04-15T14:51:42;1.03;;;0.93;;
12585;SDS011;6358;50.760;0.282;2023-04-15T14:54:08;0.90;;;0.90;;
12585;SDS011;6358;50.760;0.282;2023-04-15T14:56:34;1.00;;;0.90;;
12585;SDS011;6358;50.760;0.282;2023-04-15T14:59:00;0.80;;;0.80;;
12585;SDS011;6358;50.760;0.282;2023-04-15T15:01:26;1.30;;;1.00;;
12585;SDS011;6358;50.760;0.282;2023-04-15T15:03:54;2.70;;;1.00;;
12585;SDS011;6358;50.760;0.282;2023-04-15T15:06:20;1.37;;;0.87;;
12585;SDS011;6358;50.760;0.282;2023-04-15T15:08:47;0.90;;;0.90;;
12585;SDS011;6358;50.760;0.282;2023-04-15T15:11:13;1.43;;;1.03;;